createdAt,value
2022-12-16T00:02:25.459Z,95743.31
2022-12-16T00:04:52.231Z,95751.72
2022-12-16T00:07:20.236Z,95757.84
2022-12-16T00:09:46.912Z,95759.97
2022-12-16T00:12:13.742Z,95763.69
2022-12-16T00:14:40.435Z,95759.25
2022-12-16T00:17:07.272Z,95765.13
2022-12-16T00:19:33.970Z,95764.94
2022-12-16T00:22:00.695Z,95763.97
2022-12-16T00:24:27.324Z,95771.78
2022-12-16T00:26:54.554Z,95771.97
2022-12-16T00:29:21.615Z,95770.53
2022-12-16T00:31:48.489Z,95774.25
2022-12-16T00:34:16.251Z,95773.50
2022-12-16T00:36:43.817Z,95768.38
2022-12-16T00:39:11.156Z,95770.53
2022-12-16T00:41:37.968Z,95767.38
2022-12-16T00:44:04.927Z,95769.53
2022-12-16T00:46:31.670Z,95774.38
2022-12-16T00:48:58.398Z,95777.22
2022-12-16T00:51:25.200Z,95780.09
2022-12-16T00:53:52.083Z,95782.63
2022-12-16T00:56:19.055Z,95780.78
2022-12-16T00:58:46.134Z,95791.91
2022-12-16T01:01:13.169Z,95792.47
2022-12-16T01:03:40.654Z,95797.34
2022-12-16T01:06:13.011Z,95796.63
2022-12-16T01:08:39.723Z,95800.19
2022-12-16T01:11:06.470Z,95799.59
2022-12-16T01:13:33.498Z,95805.75
2022-12-16T01:16:02.336Z,95800.88
2022-12-16T01:18:29.350Z,95809.72
2022-12-16T01:21:05.706Z,95812.44
2022-12-16T01:23:33.782Z,95825.84
2022-12-16T01:26:01.695Z,95829.66
2022-12-16T01:28:29.553Z,95832.53
2022-12-16T01:31:02.003Z,95836.22
2022-12-16T01:33:30.709Z,95833.34
2022-12-16T01:36:08.350Z,95837.53
2022-12-16T01:38:36.023Z,95841.34
2022-12-16T01:41:03.430Z,95854.28
2022-12-16T01:43:49.017Z,95849.72
2022-12-16T01:46:23.849Z,95859.56
2022-12-16T01:49:00.922Z,95864.69
2022-12-16T01:51:32.964Z,95870.41
2022-12-16T01:54:08.926Z,95863.56
2022-12-16T01:56:39.293Z,95870.09
2022-12-16T01:59:06.084Z,95870.97
2022-12-16T02:01:33.003Z,95868.84
2022-12-16T02:04:01.988Z,95862.94
2022-12-16T02:06:30.218Z,95869.78
2022-12-16T02:08:58.599Z,95874.56
2022-12-16T02:11:36.175Z,95873.00
2022-12-16T02:14:24.071Z,95871.44
2022-12-16T02:17:20.712Z,95879.69
2022-12-16T02:20:05.747Z,95874.53
2022-12-16T02:22:50.882Z,95889.03
2022-12-16T02:25:47.896Z,95889.34
2022-12-16T02:28:33.630Z,95892.66
2022-12-16T02:31:26.817Z,95897.81
2022-12-16T02:33:56.790Z,95896.84
2022-12-16T02:36:55.463Z,95895.56
2022-12-16T02:39:30.988Z,95893.41
2022-12-16T02:42:05.714Z,95900.25
2022-12-16T02:44:46.033Z,95900.09
2022-12-16T02:47:12.902Z,95906.66
2022-12-16T02:49:48.428Z,95905.06
2022-12-16T02:52:15.844Z,95905.94
2022-12-16T02:54:51.968Z,95905.50
2022-12-16T02:57:38.670Z,95906.25
2022-12-16T03:00:09.214Z,95914.75
2022-12-16T03:02:54.964Z,95920.19
2022-12-16T03:05:31.424Z,95924.72
2022-12-16T03:08:01.044Z,95926.56
2022-12-16T03:10:30.770Z,95930.53
2022-12-16T03:12:58.695Z,95929.84
2022-12-16T03:15:27.327Z,95928.56
2022-12-16T03:17:55.176Z,95940.66
2022-12-16T03:20:27.689Z,95936.38
2022-12-16T03:22:57.682Z,95937.06
2022-12-16T03:25:26.745Z,95948.91
2022-12-16T03:28:08.320Z,95948.22
2022-12-16T03:30:40.839Z,95946.78
2022-12-16T03:33:24.894Z,95948.91
2022-12-16T03:35:57.801Z,95948.78
2022-12-16T03:38:25.516Z,95950.91
2022-12-16T03:40:52.839Z,95953.06
2022-12-16T03:43:21.817Z,95967.47
2022-12-16T03:45:52.133Z,95962.59
2022-12-16T03:48:23.208Z,95969.16
2022-12-16T03:50:50.036Z,95968.25
2022-12-16T03:53:16.756Z,95967.25
2022-12-16T03:55:43.520Z,95975.22
2022-12-16T03:58:10.505Z,95976.50
2022-12-16T04:00:37.361Z,95978.78
2022-12-16T04:03:04.266Z,95987.06
2022-12-16T04:05:31.137Z,95985.06
2022-12-16T04:08:01.801Z,95987.06
2022-12-16T04:10:47.676Z,95989.06
2022-12-16T04:13:33.266Z,96000.44
2022-12-16T04:16:18.943Z,96008.38
2022-12-16T04:19:05.694Z,96006.81
2022-12-16T04:21:51.134Z,96009.19
2022-12-16T04:24:19.769Z,96007.47
2022-12-16T04:27:15.123Z,96008.75
2022-12-16T04:30:01.487Z,96010.31
2022-12-16T04:32:48.413Z,96012.47
2022-12-16T04:35:33.581Z,96024.88
2022-12-16T04:38:18.723Z,96020.59
2022-12-16T04:41:04.186Z,96020.59
2022-12-16T04:43:49.600Z,96024.88
2022-12-16T04:46:34.991Z,96026.28
2022-12-16T04:49:20.221Z,96034.25
2022-12-16T04:52:05.697Z,96044.19
2022-12-16T04:54:51.069Z,96050.34
2022-12-16T04:57:36.321Z,96050.34
2022-12-16T05:00:22.739Z,96056.47
2022-12-16T05:03:08.927Z,96052.50
2022-12-16T05:05:54.431Z,96057.34
2022-12-16T05:08:39.698Z,96058.03
2022-12-16T05:11:25.025Z,96054.63
2022-12-16T05:14:10.501Z,96060.03
2022-12-16T05:16:55.921Z,96062.75
2022-12-16T05:19:41.241Z,96067.06
2022-12-16T05:22:26.616Z,96071.75
2022-12-16T05:25:11.968Z,96066.88
2022-12-16T05:27:57.537Z,96070.28
2022-12-16T05:30:42.624Z,96072.13
2022-12-16T05:33:27.962Z,96076.13
2022-12-16T05:36:13.361Z,96083.34
2022-12-16T05:38:58.680Z,96086.78
2022-12-16T05:41:44.160Z,96096.34
2022-12-16T05:44:29.167Z,96102.63
2022-12-16T05:47:14.518Z,96104.47
2022-12-16T05:49:59.953Z,96114.25
2022-12-16T05:52:46.043Z,96126.16
2022-12-16T05:55:34.027Z,96130.53
2022-12-16T05:58:19.637Z,96131.25
2022-12-16T06:01:05.130Z,96134.84
2022-12-16T06:03:50.491Z,96140.97
2022-12-16T06:06:35.870Z,96145.09
2022-12-16T06:09:22.327Z,96144.38
2022-12-16T06:12:08.636Z,96149.22
2022-12-16T06:14:54.049Z,96142.38
2022-12-16T06:17:40.804Z,96157.19
2022-12-16T06:20:26.589Z,96155.06
2022-12-16T06:23:15.417Z,96155.44
2022-12-16T06:26:01.113Z,96161.41
2022-12-16T06:28:46.349Z,96173.50
2022-12-16T06:31:32.392Z,96170.22
2022-12-16T06:34:17.714Z,96181.19
2022-12-16T06:37:02.921Z,96185.19
2022-12-16T06:39:52.777Z,96199.28
2022-12-16T06:42:38.776Z,96210.09
2022-12-16T06:45:34.493Z,96215.50
2022-12-16T06:48:25.815Z,96210.31
2022-12-16T06:51:14.929Z,96210.38
2022-12-16T06:54:03.299Z,96218.66
2022-12-16T06:56:49.333Z,96216.25
2022-12-16T06:59:34.592Z,96225.13
2022-12-16T07:02:20.124Z,96237.72
2022-12-16T07:05:06.670Z,96242.38
2022-12-16T07:07:52.379Z,96247.53
2022-12-16T07:10:37.905Z,96241.91
2022-12-16T07:13:23.293Z,96237.97
2022-12-16T07:16:08.910Z,96241.75
2022-12-16T07:18:54.288Z,96245.34
2022-12-16T07:21:39.531Z,96258.72
2022-12-16T07:24:24.959Z,96259.16
2022-12-16T07:27:18.211Z,96270.38
2022-12-16T07:30:03.820Z,96276.72
2022-12-16T07:32:48.842Z,96276.09
2022-12-16T07:35:34.178Z,96285.34
2022-12-16T07:38:19.410Z,96287.13
2022-12-16T07:41:06.721Z,96291.31
2022-12-16T07:43:51.965Z,96293.06
2022-12-16T07:46:37.382Z,96311.63
2022-12-16T07:49:22.679Z,96311.72
2022-12-16T07:52:08.317Z,96313.22
2022-12-16T07:54:55.233Z,96322.34
2022-12-16T07:57:41.259Z,96328.63
2022-12-16T08:00:26.963Z,96331.97
2022-12-16T08:03:13.641Z,96328.88
2022-12-16T08:05:58.989Z,96330.09
2022-12-16T08:08:44.310Z,96331.44
2022-12-16T08:11:29.613Z,96340.34
2022-12-16T08:14:14.824Z,96340.19
2022-12-16T08:17:00.337Z,96337.81
2022-12-16T08:19:48.759Z,96339.22
2022-12-16T08:22:36.394Z,96351.44
2022-12-16T08:25:25.926Z,96356.66
2022-12-16T08:28:15.480Z,96353.44
2022-12-16T08:31:00.874Z,96353.44
2022-12-16T08:33:46.226Z,96363.47
2022-12-16T08:36:31.617Z,96358.47
2022-12-16T08:39:16.778Z,96372.09
2022-12-16T08:42:02.029Z,96368.72
2022-12-16T08:44:47.385Z,96364.84
2022-12-16T08:47:32.694Z,96367.91
2022-12-16T08:50:17.992Z,96378.09
2022-12-16T08:53:03.348Z,96387.66
2022-12-16T08:55:48.643Z,96393.09
2022-12-16T08:58:33.921Z,96399.63
2022-12-16T09:01:19.338Z,96407.72
2022-12-16T09:04:05.210Z,96409.38
2022-12-16T09:06:50.458Z,96411.91
2022-12-16T09:09:35.653Z,96415.13
2022-12-16T09:12:21.477Z,96428.81
2022-12-16T09:15:06.794Z,96422.97
2022-12-16T09:17:52.238Z,96428.75
2022-12-16T09:20:38.299Z,96438.66
2022-12-16T09:23:23.619Z,96438.72
2022-12-16T09:26:09.039Z,96441.19
2022-12-16T09:29:08.162Z,96442.38
2022-12-16T09:31:53.496Z,96435.19
2022-12-16T09:34:38.797Z,96440.78
2022-12-16T09:37:24.274Z,96441.13
2022-12-16T09:40:09.480Z,96442.97
2022-12-16T09:42:57.660Z,96452.34
2022-12-16T09:45:46.048Z,96452.41
2022-12-16T09:48:37.066Z,96454.16
2022-12-16T09:51:23.649Z,96453.56
2022-12-16T09:54:10.922Z,96458.75
2022-12-16T09:56:56.115Z,96464.94
2022-12-16T09:59:46.627Z,96478.25
2022-12-16T10:02:36.120Z,96472.19
2022-12-16T10:05:22.261Z,96472.72
2022-12-16T10:08:19.057Z,96475.31
2022-12-16T10:11:33.296Z,96471.56
2022-12-16T10:14:29.850Z,96478.19
2022-12-16T10:17:24.821Z,96471.28
2022-12-16T10:20:22.901Z,96474.03
2022-12-16T10:23:19.959Z,96471.75
2022-12-16T10:26:31.579Z,96469.78
2022-12-16T10:29:25.090Z,96464.50
2022-12-16T10:32:10.405Z,96463.84
2022-12-16T10:34:56.186Z,96462.75
2022-12-16T10:37:53.133Z,96463.59
2022-12-16T10:40:44.042Z,96467.47
2022-12-16T10:43:30.291Z,96477.19
2022-12-16T10:46:16.263Z,96474.97
2022-12-16T10:49:02.361Z,96486.13
2022-12-16T10:51:48.152Z,96475.28
2022-12-16T10:54:39.496Z,96490.25
2022-12-16T10:57:34.402Z,96482.91
2022-12-16T11:00:34.409Z,96499.41
2022-12-16T11:03:38.810Z,96496.56
2022-12-16T11:06:25.396Z,96493.94
2022-12-16T11:09:14.590Z,96499.31
2022-12-16T11:12:09.083Z,96493.03
2022-12-16T11:15:27.709Z,96502.50
2022-12-16T11:18:24.699Z,96497.47
2022-12-16T11:21:31.469Z,96498.66
2022-12-16T11:24:26.538Z,96500.81
2022-12-16T11:27:13.787Z,96498.16
2022-12-16T11:30:13.143Z,96496.91
2022-12-16T11:33:02.692Z,96501.91
2022-12-16T11:35:50.342Z,96493.28
2022-12-16T11:38:42.959Z,96502.09
2022-12-16T11:41:37.718Z,96501.72
2022-12-16T11:44:24.046Z,96500.81
2022-12-16T11:47:11.581Z,96509.97
2022-12-16T11:49:57.403Z,96512.09
2022-12-16T11:52:42.746Z,96512.19
2022-12-16T11:58:55.677Z,96512.44
2022-12-16T12:02:01.773Z,96526.44
2022-12-16T12:04:47.176Z,96523.94
2022-12-16T12:07:44.488Z,96518.59
2022-12-16T12:10:42.464Z,96528.91
2022-12-16T12:13:45.894Z,96521.56
2022-12-16T12:16:47.595Z,96522.31
2022-12-16T12:19:32.645Z,96532.25
2022-12-16T12:22:23.110Z,96534.38
2022-12-16T12:25:16.624Z,96539.88
2022-12-16T12:28:11.061Z,96534.69
2022-12-16T12:31:33.427Z,96544.75
2022-12-16T12:34:36.059Z,96537.41
2022-12-16T12:37:28.589Z,96538.25
2022-12-16T12:40:41.264Z,96535.03
2022-12-16T12:43:43.437Z,96542.53
2022-12-16T12:46:52.098Z,96538.25
2022-12-16T12:49:40.599Z,96544.78
2022-12-16T12:52:59.571Z,96536.00
2022-12-16T12:55:55.633Z,96545.72
2022-12-16T12:58:42.184Z,96543.97
2022-12-16T13:01:28.069Z,96545.72
2022-12-16T13:04:35.928Z,96550.88
2022-12-16T13:07:22.669Z,96549.69
2022-12-16T13:10:34.557Z,96557.56
2022-12-16T13:13:41.198Z,96560.53
2022-12-16T13:16:30.333Z,96561.78
2022-12-16T13:19:54.415Z,96557.50
2022-12-16T13:22:54.665Z,96553.28
2022-12-16T13:25:52.072Z,96566.94
2022-12-16T13:28:46.209Z,96570.59
2022-12-16T13:31:32.983Z,96568.84
2022-12-16T13:34:26.613Z,96580.56
2022-12-16T13:37:21.382Z,96585.19
2022-12-16T13:40:38.700Z,96587.59
2022-12-16T13:43:24.531Z,96588.31
2022-12-16T13:46:15.656Z,96597.22
2022-12-16T13:49:01.495Z,96592.03
2022-12-16T13:51:55.994Z,96597.13
2022-12-16T13:54:47.520Z,96596.41
2022-12-16T13:57:33.168Z,96601.25
2022-12-16T14:00:19.481Z,96604.78
2022-12-16T14:03:05.030Z,96611.91
2022-12-16T14:05:55.166Z,96613.69
2022-12-16T14:08:42.474Z,96613.03
2022-12-16T14:12:13.223Z,96617.16
2022-12-16T14:15:07.083Z,96617.91
2022-12-16T14:18:06.653Z,96632.38
2022-12-16T14:21:08.170Z,96637.03
2022-12-16T14:24:00.882Z,96641.69
2022-12-16T14:26:46.568Z,96636.09
2022-12-16T14:29:44.628Z,96637.34
2022-12-16T14:32:42.010Z,96639.63
2022-12-16T14:35:36.113Z,96655.34
2022-12-16T14:38:41.374Z,96661.34
2022-12-16T14:41:30.739Z,96668.19
2022-12-16T14:44:16.145Z,96678.59
2022-12-16T14:47:01.665Z,96684.69
2022-12-16T14:49:48.407Z,96687.63
2022-12-16T14:52:45.599Z,96695.88
2022-12-16T14:55:31.881Z,96696.50
2022-12-16T14:58:30.910Z,96705.72
2022-12-16T15:01:16.731Z,96707.44
2022-12-16T15:04:06.299Z,96711.59
2022-12-16T15:06:55.950Z,96707.44
2022-12-16T15:09:53.589Z,96722.13
2022-12-16T15:12:43.862Z,96726.16
2022-12-16T15:15:36.307Z,96726.75
2022-12-16T15:18:22.236Z,96734.09
2022-12-16T15:21:13.296Z,96735.13
2022-12-16T15:24:03.669Z,96748.56
2022-12-16T15:26:51.732Z,96753.22
2022-12-16T15:30:03.250Z,96763.47
2022-12-16T15:32:54.683Z,96763.22
2022-12-16T15:35:44.635Z,96768.84
2022-12-16T15:38:46.153Z,96774.22
2022-12-16T15:41:40.548Z,96780.81
2022-12-16T15:44:34.254Z,96782.91
2022-12-16T15:47:19.483Z,96782.72
2022-12-16T15:50:06.423Z,96792.16
2022-12-16T15:52:58.792Z,96792.88
2022-12-16T15:55:46.478Z,96805.81
2022-12-16T15:58:40.362Z,96800.44
2022-12-16T16:01:26.699Z,96802.09
2022-12-16T16:04:14.247Z,96795.53
2022-12-16T16:07:10.002Z,96804.13
2022-12-16T16:09:58.234Z,96808.91
2022-12-16T16:12:54.348Z,96809.31
2022-12-16T16:15:43.094Z,96811.53
2022-12-16T16:18:28.429Z,96820.28
2022-12-16T16:21:13.675Z,96824.66
2022-12-16T16:23:59.044Z,96834.09
2022-12-16T16:26:45.860Z,96829.22
2022-12-16T16:29:31.305Z,96829.59
2022-12-16T16:32:16.596Z,96838.34
2022-12-16T16:35:01.891Z,96843.84
2022-12-16T16:37:47.267Z,96836.75
2022-12-16T16:40:52.220Z,96842.53
2022-12-16T16:43:40.590Z,96833.94
2022-12-16T16:46:38.591Z,96848.84
2022-12-16T16:49:43.167Z,96856.91
2022-12-16T16:52:34.209Z,96858.66
2022-12-16T16:55:19.489Z,96863.59
2022-12-16T16:58:04.958Z,96863.72
2022-12-16T17:00:50.434Z,96866.09
2022-12-16T17:03:36.401Z,96875.81
2022-12-16T17:06:22.762Z,96881.81
2022-12-16T17:09:08.169Z,96880.25
2022-12-16T17:11:53.429Z,96881.06
2022-12-16T17:14:39.879Z,96880.22
2022-12-16T17:17:27.168Z,96889.66
2022-12-16T17:20:13.672Z,96889.53
2022-12-16T17:22:59.089Z,96898.75
2022-12-16T17:25:44.535Z,96899.66
2022-12-16T17:28:29.946Z,96909.59
2022-12-16T17:31:15.321Z,96905.66
2022-12-16T17:34:01.029Z,96918.28
2022-12-16T17:36:46.373Z,96921.38
2022-12-16T17:39:31.601Z,96916.41
2022-12-16T17:42:17.061Z,96927.38
2022-12-16T17:45:02.314Z,96937.66
2022-12-16T17:47:48.178Z,96933.72
2022-12-16T17:50:33.444Z,96942.72
2022-12-16T17:53:19.099Z,96948.13
2022-12-16T17:56:04.575Z,96948.53
2022-12-16T17:58:50.415Z,96956.09
2022-12-16T18:01:35.790Z,96959.00
2022-12-16T18:04:21.300Z,96953.78
2022-12-16T18:07:06.700Z,96959.38
2022-12-16T18:09:52.157Z,96967.69
2022-12-16T18:12:38.797Z,96976.69
2022-12-16T18:15:28.529Z,96977.41
2022-12-16T18:18:14.988Z,96978.34
2022-12-16T18:21:00.257Z,96981.25
2022-12-16T18:23:47.464Z,96988.09
2022-12-16T18:26:32.870Z,96980.00
2022-12-16T18:29:18.172Z,96991.53
2022-12-16T18:32:03.592Z,96989.56
2022-12-16T18:34:48.949Z,96993.47
2022-12-16T18:37:34.258Z,97001.59
2022-12-16T18:40:19.706Z,97007.50
2022-12-16T18:43:04.950Z,96996.72
2022-12-16T18:45:50.302Z,97008.56
2022-12-16T18:48:35.739Z,97011.78
2022-12-16T18:51:20.793Z,97006.19
2022-12-16T18:54:18.868Z,97003.31
2022-12-16T18:57:04.245Z,97004.53
2022-12-16T18:59:49.344Z,97012.97
2022-12-16T19:02:35.172Z,97013.81
2022-12-16T19:05:20.814Z,97014.84
2022-12-16T19:08:08.895Z,97013.72
2022-12-16T19:10:57.801Z,97018.19
2022-12-16T19:13:42.911Z,97017.25
2022-12-16T19:16:28.803Z,97029.81
2022-12-16T19:19:19.663Z,97027.66
2022-12-16T19:22:05.715Z,97021.63
2022-12-16T19:24:51.102Z,97027.84
2022-12-16T19:27:37.092Z,97031.38
2022-12-16T19:30:22.505Z,97040.53
2022-12-16T19:33:07.849Z,97038.13
2022-12-16T19:38:58.646Z,97042.59
2022-12-16T19:41:43.883Z,97046.56
2022-12-16T19:44:29.444Z,97048.50
2022-12-16T19:47:15.493Z,97047.78
2022-12-16T19:50:02.473Z,97048.50
2022-12-16T19:52:49.098Z,97054.66
2022-12-16T19:55:34.571Z,97062.75
2022-12-16T19:58:19.879Z,97070.06
2022-12-16T20:01:05.791Z,97079.63
2022-12-16T20:03:52.343Z,97081.81
2022-12-16T20:06:40.518Z,97083.97
2022-12-16T20:09:25.861Z,97086.19
2022-12-16T20:12:11.185Z,97093.00
2022-12-16T20:18:01.766Z,97095.19
2022-12-16T20:20:47.248Z,97098.59
2022-12-16T20:23:32.541Z,97101.31
2022-12-16T20:26:19.080Z,97104.72
2022-12-16T20:29:04.487Z,97098.81
2022-12-16T20:31:50.256Z,97101.50
2022-12-16T20:34:35.668Z,97102.25
2022-12-16T20:37:21.025Z,97102.97
2022-12-16T20:40:06.364Z,97104.63
2022-12-16T20:42:51.583Z,97115.63
2022-12-16T20:45:39.015Z,97108.75
2022-12-16T20:48:24.346Z,97108.75
2022-12-16T20:51:13.473Z,97117.59
2022-12-16T20:53:58.714Z,97119.78
2022-12-16T20:56:43.979Z,97119.78
2022-12-16T20:59:32.139Z,97122.47
2022-12-16T21:02:31.619Z,97133.47
2022-12-16T21:05:23.089Z,97135.44
2022-12-16T21:08:14.662Z,97140.09
2022-12-16T21:10:59.906Z,97131.28
2022-12-16T21:13:45.920Z,97141.53
2022-12-16T21:16:31.465Z,97141.78
2022-12-16T21:19:16.885Z,97143.22
2022-12-16T21:22:02.359Z,97156.47
2022-12-16T21:24:47.799Z,97159.91
2022-12-16T21:27:32.821Z,97165.53
2022-12-16T21:30:18.294Z,97156.72
2022-12-16T21:33:03.849Z,97161.38
2022-12-16T21:35:49.282Z,97158.69
2022-12-16T21:38:34.609Z,97161.88
2022-12-16T21:41:20.060Z,97161.38
2022-12-16T21:44:05.303Z,97164.56
2022-12-16T21:46:51.907Z,97169.97
2022-12-16T21:49:37.070Z,97173.91
2022-12-16T21:52:25.044Z,97175.38
2022-12-16T21:55:10.410Z,97191.53
2022-12-16T21:57:56.435Z,97192.06
2022-12-16T22:00:42.042Z,97202.13
2022-12-16T22:03:27.452Z,97211.69
2022-12-16T22:06:12.610Z,97214.38
2022-12-16T22:08:58.202Z,97215.63
2022-12-16T22:11:43.477Z,97218.13
2022-12-16T22:14:28.655Z,97226.22
2022-12-16T22:17:14.194Z,97230.66
2022-12-16T22:19:59.593Z,97236.06
2022-12-16T22:22:44.916Z,97223.28
2022-12-16T22:25:30.198Z,97236.06
2022-12-16T22:28:15.520Z,97238.03
2022-12-16T22:31:00.738Z,97240.72
2022-12-16T22:33:45.924Z,97233.88
2022-12-16T22:36:20.178Z,97042.59
2022-12-16T22:36:31.369Z,97230.94
2022-12-16T22:39:16.549Z,97235.41
2022-12-16T22:42:02.072Z,97230.53
2022-12-16T22:44:47.433Z,97237.91
2022-12-16T22:47:32.878Z,97248.47
2022-12-16T22:50:18.435Z,97254.91
2022-12-16T22:53:03.925Z,97254.47
2022-12-16T22:55:49.408Z,97257.69
2022-12-16T22:58:34.736Z,97257.47
2022-12-16T23:01:20.157Z,97262.13
2022-12-16T23:04:05.614Z,97264.63
2022-12-16T23:06:51.938Z,97263.38
2022-12-16T23:09:37.653Z,97265.88
2022-12-16T23:12:22.891Z,97258.78
2022-12-16T23:15:08.361Z,97264.72
2022-12-16T23:17:55.095Z,97265.19
2022-12-16T23:20:41.460Z,97264.47
2022-12-16T23:23:26.707Z,97267.69
2022-12-16T23:26:19.779Z,97268.22
2022-12-16T23:29:08.663Z,97271.41
2022-12-16T23:31:56.428Z,97275.88
2022-12-16T23:34:45.781Z,97278.34
2022-12-16T23:37:33.768Z,97277.63
2022-12-16T23:40:20.243Z,97275.94
2022-12-16T23:43:05.652Z,97285.75
2022-12-16T23:45:51.112Z,97287.53
2022-12-16T23:48:36.951Z,97291.97
2022-12-16T23:51:22.201Z,97289.78
2022-12-16T23:54:07.900Z,97283.47
2022-12-16T23:56:56.389Z,97288.63
2022-12-16T23:59:43.276Z,97291.63
